Time;durP1;ratioP1;P1;durP2;ratioP2;P2;SDS_P1;SDS_P2;PMS_P1;PMS_P2;Temp;Humidity;BMP_temperature;BMP_pressure;BME280_temperature;BME280_humidity;BME280_pressure;Samples;Min_cycle;Max_cycle;Signal;HPM_P1;HPM_P2
2023/04/15 00:01:23;;;;;;;9.18;6.22;;;5.70;1.00;;;;;;7372203;19;20015;-70
2023/04/15 00:03:55;;;;;;;9.52;5.93;;;5.70;1.00;;;;;;7392560;19;20466;-70
2023/04/15 00:06:25;;;;;;;14.48;6.65;;;5.60;2.00;;;;;;7372633;19;20006;-69
2023/04/15 00:08:55;;;;;;;10.45;6.70;;;5.70;2.00;;;;;;7371793;19;20006;-68
2023/04/15 00:11:25;;;;;;;10.43;6.43;;;5.60;1.90;;;;;;7370927;19;20006;-69
2023/04/15 00:13:55;;;;;;;12.55;6.55;;;5.60;2.30;;;;;;7371104;19;20480;-69
2023/04/15 00:16:28;;;;;;;11.55;6.05;;;5.70;2.50;;;;;;7372382;19;20014;-69
2023/04/15 00:18:58;;;;;;;13.52;7.07;;;5.60;2.50;;;;;;7393463;19;20043;-70
2023/04/15 00:21:28;;;;;;;10.25;7.20;;;5.70;3.10;;;;;;7371761;19;20098;-68
2023/04/15 00:23:58;;;;;;;12.55;6.78;;;5.70;2.10;;;;;;7371062;19;20498;-70
2023/04/15 00:26:28;;;;;;;10.80;6.88;;;5.80;2.10;;;;;;7370351;19;20350;-68
2023/04/15 00:28:58;;;;;;;9.65;6.45;;;5.70;2.10;;;;;;7372288;19;20770;-68
2023/04/15 00:31:31;;;;;;;10.05;6.82;;;5.80;2.20;;;;;;7371195;19;20013;-68
2023/04/15 00:34:02;;;;;;;13.35;7.20;;;5.70;2.10;;;;;;7392899;19;20523;-69
2023/04/15 00:36:33;;;;;;;12.27;7.57;;;5.70;1.70;;;;;;7371279;19;20015;-70
2023/04/15 00:39:04;;;;;;;11.20;7.28;;;5.70;2.00;;;;;;7370987;19;20027;-69
2023/04/15 00:41:34;;;;;;;14.18;6.75;;;5.70;1.00;;;;;;7370457;19;20010;-70
2023/04/15 00:44:04;;;;;;;11.35;6.80;;;5.60;1.00;;;;;;7372411;19;20004;-68
2023/04/15 00:46:39;;;;;;;13.50;6.78;;;5.70;1.00;;;;;;7370503;19;20018;-69
2023/04/15 00:49:09;;;;;;;11.85;6.35;;;5.60;1.00;;;;;;7393017;19;20434;-69
2023/04/15 00:51:39;;;;;;;9.10;6.00;;;5.70;1.00;;;;;;7371069;19;20014;-69
2023/04/15 00:54:09;;;;;;;10.68;6.65;;;5.70;1.00;;;;;;7369498;19;20819;-69
2023/04/15 00:56:40;;;;;;;12.05;6.82;;;5.70;1.00;;;;;;7369383;19;20015;-69
2023/04/15 00:59:11;;;;;;;10.45;6.07;;;5.60;1.00;;;;;;7370768;19;20474;-69
2023/04/15 01:01:44;;;;;;;11.00;6.32;;;5.30;1.40;;;;;;7369652;19;20006;-68
2023/04/15 01:04:14;;;;;;;11.07;6.78;;;5.10;3.50;;;;;;7393358;19;20027;-69
2023/04/15 01:06:44;;;;;;;11.88;6.82;;;4.90;5.20;;;;;;7370414;19;20028;-70
2023/04/15 01:09:15;;;;;;;12.38;6.97;;;4.70;7.90;;;;;;7367078;19;20867;-70
2023/04/15 01:11:45;;;;;;;14.00;7.53;;;4.60;10.10;;;;;;7372436;19;20010;-69
2023/04/15 01:14:16;;;;;;;10.95;6.65;;;4.70;11.70;;;;;;7370581;19;20010;-69
2023/04/15 01:16:49;;;;;;;10.32;6.75;;;4.60;12.30;;;;;;7369738;19;20482;-69
2023/04/15 01:19:20;;;;;;;10.80;6.88;;;4.60;12.30;;;;;;7370322;19;20080;-69
2023/04/15 01:21:50;;;;;;;9.27;6.85;;;4.50;12.70;;;;;;7392809;19;20010;-70
2023/04/15 01:24:21;;;;;;;11.13;6.88;;;4.60;13.40;;;;;;7368866;19;20013;-70
2023/04/15 01:26:53;;;;;;;12.63;6.60;;;4.50;12.30;;;;;;7368535;19;20014;-69
2023/04/15 01:29:23;;;;;;;14.63;7.38;;;4.50;13.50;;;;;;7370127;19;20006;-69
2023/04/15 01:31:54;;;;;;;11.65;6.90;;;4.50;14.20;;;;;;7370337;19;20026;-69
2023/04/15 01:34:43;;;;;;;11.35;7.22;;;4.60;14.40;;;;;;7369924;19;20109;-70
2023/04/15 01:37:32;;;;;;;13.60;6.85;;;4.70;14.30;;;;;;7368340;19;20095;-69
2023/04/15 01:40:02;;;;;;;14.77;8.00;;;4.80;13.90;;;;;;7389700;19;20023;-69
2023/04/15 01:42:34;;;;;;;11.60;7.15;;;4.80;13.50;;;;;;7370073;19;20010;-69
2023/04/15 01:45:05;;;;;;;12.68;7.65;;;4.90;12.50;;;;;;7369940;19;20007;-69
2023/04/15 01:47:35;;;;;;;13.15;7.57;;;4.90;12.30;;;;;;7366716;19;20017;-69
2023/04/15 01:50:05;;;;;;;11.10;6.53;;;4.90;11.20;;;;;;7368251;19;20081;-69
2023/04/15 01:52:35;;;;;;;12.32;6.85;;;4.80;10.80;;;;;;7370652;19;20013;-69
2023/04/15 01:55:06;;;;;;;12.38;7.50;;;4.70;11.10;;;;;;7391237;19;20022;-69
2023/04/15 01:57:39;;;;;;;9.85;6.63;;;4.60;11.90;;;;;;7368302;19;20352;-69
2023/04/15 02:00:11;;;;;;;12.43;7.22;;;4.60;12.30;;;;;;7367249;19;20098;-68
2023/04/15 02:02:40;;;;;;;10.13;6.75;;;4.60;12.30;;;;;;7368135;19;20017;-68
2023/04/15 02:05:11;;;;;;;13.25;7.40;;;4.50;12.70;;;;;;7366812;19;20070;-68
2023/04/15 02:07:41;;;;;;;14.70;8.05;;;4.60;13.80;;;;;;7368992;19;20016;-69
2023/04/15 02:10:12;;;;;;;14.18;8.07;;;4.70;13.30;;;;;;7390175;19;20038;-69
2023/04/15 02:12:44;;;;;;;12.82;7.93;;;4.70;12.40;;;;;;7370054;19;20474;-68
2023/04/15 02:15:14;;;;;;;12.73;8.55;;;4.90;11.20;;;;;;7367848;19;21335;-70
2023/04/15 02:17:49;;;;;;;14.05;7.47;;;4.90;9.80;;;;;;7368360;19;20014;-69
2023/04/15 02:20:21;;;;;;;14.00;7.43;;;4.80;9.00;;;;;;7368031;19;20085;-70
2023/04/15 02:22:51;;;;;;;11.85;7.57;;;4.90;8.90;;;;;;7369617;19;20010;-69
2023/04/15 02:25:21;;;;;;;12.90;7.40;;;4.90;8.90;;;;;;7368898;19;20039;-70
2023/04/15 02:27:54;;;;;;;12.60;6.90;;;4.80;8.20;;;;;;7389757;19;20417;-69
2023/04/15 02:30:24;;;;;;;12.80;7.43;;;4.80;8.80;;;;;;7367489;19;20066;-69
2023/04/15 02:32:55;;;;;;;11.93;6.65;;;4.80;8.80;;;;;;7369700;19;20470;-69
2023/04/15 02:35:25;;;;;;;15.60;7.65;;;4.80;8.60;;;;;;7368222;19;20007;-68
2023/04/15 02:37:55;;;;;;;11.63;7.28;;;4.80;8.90;;;;;;7367640;19;20098;-69
2023/04/15 02:40:25;;;;;;;11.65;7.25;;;4.80;9.00;;;;;;7367676;19;20010;-69
2023/04/15 02:42:59;;;;;;;10.93;7.10;;;4.80;9.10;;;;;;7391593;19;20010;-69
2023/04/15 02:45:29;;;;;;;12.23;7.03;;;4.70;9.00;;;;;;7367698;19;20042;-69
2023/04/15 02:48:02;;;;;;;14.13;7.20;;;4.70;8.70;;;;;;7366296;19;20022;-68
2023/04/15 02:50:32;;;;;;;11.93;6.85;;;4.70;8.60;;;;;;7367110;19;20019;-69
2023/04/15 02:53:03;;;;;;;13.60;7.15;;;4.70;8.60;;;;;;7369198;19;20010;-69
2023/04/15 02:55:33;;;;;;;12.32;6.95;;;4.70;8.20;;;;;;7367865;19;20026;-70
2023/04/15 02:58:06;;;;;;;12.10;7.65;;;4.60;8.00;;;;;;7389892;19;20014;-68
2023/04/15 03:00:36;;;;;;;11.98;6.75;;;4.30;9.10;;;;;;7365772;19;20098;-68
2023/04/15 03:03:07;;;;;;;13.50;6.90;;;4.00;11.50;;;;;;7368313;19;20007;-70
2023/04/15 03:05:38;;;;;;;11.93;7.57;;;3.80;13.10;;;;;;7366351;19;20014;-68
2023/04/15 03:08:08;;;;;;;10.23;6.97;;;3.70;15.30;;;;;;7367456;19;20043;-69
2023/04/15 03:10:37;;;;;;;11.15;7.07;;;3.70;17.20;;;;;;7366651;19;20152;-69
2023/04/15 03:13:10;;;;;;;12.18;7.32;;;3.70;18.20;;;;;;7390736;19;20014;-70
2023/04/15 03:15:40;;;;;;;17.00;8.02;;;3.80;18.70;;;;;;7367240;19;20014;-69
2023/04/15 03:18:10;;;;;;;13.63;7.93;;;3.80;18.70;;;;;;7366929;19;20077;-69
2023/04/15 03:20:40;;;;;;;14.05;7.38;;;3.80;18.80;;;;;;7366680;19;20010;-68
2023/04/15 03:23:10;;;;;;;13.32;8.32;;;3.80;18.80;;;;;;7368034;19;20014;-69
2023/04/15 03:25:40;;;;;;;11.95;7.30;;;3.90;19.00;;;;;;7366495;19;20018;-69
2023/04/15 03:28:12;;;;;;;11.10;7.40;;;4.00;18.60;;;;;;7388325;19;20060;-69
2023/04/15 03:30:42;;;;;;;13.90;7.35;;;3.90;17.70;;;;;;7366051;19;20015;-69
2023/04/15 03:33:12;;;;;;;12.70;7.43;;;4.00;18.00;;;;;;7375488;19;20029;-69
2023/04/15 03:35:42;;;;;;;10.95;7.20;;;4.00;17.10;;;;;;7373522;19;20486;-69
2023/04/15 03:38:12;;;;;;;13.57;8.15;;;4.10;16.50;;;;;;7373984;19;20031;-69
2023/04/15 03:40:43;;;;;;;11.43;7.20;;;4.30;15.70;;;;;;7373214;19;20038;-69
2023/04/15 03:43:15;;;;;;;12.07;7.97;;;4.30;13.60;;;;;;7396673;19;20034;-69
2023/04/15 03:45:45;;;;;;;9.90;6.82;;;4.30;12.90;;;;;;7374223;19;20022;-70
2023/04/15 03:48:15;;;;;;;14.57;7.95;;;4.40;12.60;;;;;;7372856;19;20021;-68
2023/04/15 03:50:47;;;;;;;13.80;8.05;;;4.40;12.70;;;;;;7373183;19;20086;-68
2023/04/15 03:53:17;;;;;;;11.40;7.22;;;4.40;12.20;;;;;;7375336;19;20066;-69
2023/04/15 03:55:47;;;;;;;10.38;7.80;;;4.40;11.90;;;;;;7374241;19;20006;-68
2023/04/15 03:58:19;;;;;;;16.67;8.75;;;4.40;11.10;;;;;;7395749;19;20014;-69
2023/04/15 04:00:49;;;;;;;15.65;8.00;;;4.40;12.10;;;;;;7371681;19;20340;-68
2023/04/15 04:03:19;;;;;;;16.02;8.77;;;4.40;11.80;;;;;;7374133;19;20082;-70
2023/04/15 04:05:50;;;;;;;18.90;8.82;;;4.40;11.90;;;;;;7372924;19;20034;-69
2023/04/15 04:08:20;;;;;;;14.57;8.05;;;4.40;11.50;;;;;;7372799;19;20042;-69
2023/04/15 04:10:50;;;;;;;13.60;7.95;;;4.40;11.70;;;;;;7370942;19;20007;-68
2023/04/15 04:13:22;;;;;;;17.13;7.70;;;4.50;11.00;;;;;;7374161;19;20382;-69
2023/04/15 04:15:52;;;;;;;20.90;11.10;;;4.40;11.40;;;;;;7396026;19;20003;-70
2023/04/15 04:18:23;;;;;;;17.42;9.60;;;4.40;11.30;;;;;;7371886;19;20003;-68
2023/04/15 04:20:52;;;;;;;14.18;7.97;;;4.40;10.60;;;;;;7372707;19;20006;-69
2023/04/15 04:23:22;;;;;;;14.52;8.07;;;4.40;9.90;;;;;;7372547;19;20347;-69
2023/04/15 04:25:52;;;;;;;12.80;7.38;;;4.40;10.40;;;;;;7372967;19;20018;-70
2023/04/15 04:28:25;;;;;;;13.02;8.25;;;4.30;9.50;;;;;;7372304;19;20007;-69
2023/04/15 04:30:55;;;;;;;15.80;7.68;;;4.10;10.40;;;;;;7392909;19;20011;-69
2023/04/15 04:33:25;;;;;;;13.13;8.10;;;4.10;11.70;;;;;;7372291;19;20383;-69
2023/04/15 04:35:55;;;;;;;14.60;6.95;;;4.10;12.00;;;;;;7372317;19;20068;-69
2023/04/15 04:38:24;;;;;;;14.27;7.88;;;4.10;12.10;;;;;;7371016;19;20478;-68
2023/04/15 04:40:54;;;;;;;11.15;7.85;;;4.10;12.00;;;;;;7370119;19;20014;-68
2023/04/15 04:43:27;;;;;;;11.93;7.60;;;4.10;12.00;;;;;;7371268;19;20034;-68
2023/04/15 04:45:57;;;;;;;12.45;7.93;;;4.20;12.00;;;;;;7393438;19;20389;-69
2023/04/15 04:48:26;;;;;;;14.50;8.38;;;4.20;12.00;;;;;;7371013;19;20006;-69
2023/04/15 04:50:56;;;;;;;10.10;7.22;;;4.30;11.50;;;;;;7370475;19;20010;-69
2023/04/15 04:53:26;;;;;;;10.85;7.15;;;4.30;10.70;;;;;;7371039;19;20010;-69
2023/04/15 04:55:57;;;;;;;14.98;8.13;;;4.40;10.50;;;;;;7372014;19;20248;-69
2023/04/15 04:58:29;;;;;;;11.73;7.50;;;4.40;9.80;;;;;;7371134;19;20067;-69
2023/04/15 05:00:59;;;;;;;11.77;7.80;;;4.50;9.30;;;;;;7391582;19;20352;-69
2023/04/15 05:03:29;;;;;;;12.80;7.35;;;4.50;8.80;;;;;;7370968;19;20038;-72
2023/04/15 05:05:59;;;;;;;15.88;7.70;;;4.60;8.60;;;;;;7370617;19;20031;-68
2023/04/15 05:08:29;;;;;;;16.60;7.30;;;4.60;8.20;;;;;;7369945;19;20031;-70
2023/04/15 05:10:59;;;;;;;10.23;6.65;;;4.60;8.20;;;;;;7369439;19;20026;-69
2023/04/15 05:13:31;;;;;;;12.80;6.95;;;4.70;7.90;;;;;;7371970;19;20022;-69
2023/04/15 05:16:01;;;;;;;14.30;8.00;;;4.70;7.60;;;;;;7392497;19;20018;-70
2023/04/15 05:18:32;;;;;;;14.48;7.95;;;4.70;7.00;;;;;;7370573;19;20013;-69
2023/04/15 05:21:03;;;;;;;16.27;8.25;;;4.70;5.70;;;;;;7370129;19;20014;-70
2023/04/15 05:23:33;;;;;;;13.88;8.00;;;4.70;5.10;;;;;;7371167;19;20026;-68
2023/04/15 05:26:03;;;;;;;14.15;8.52;;;4.80;4.60;;;;;;7370504;19;20007;-70
2023/04/15 05:28:35;;;;;;;12.63;7.85;;;4.80;3.50;;;;;;7369755;19;20022;-69
2023/04/15 05:31:06;;;;;;;19.40;9.90;;;4.90;2.10;;;;;;7391089;19;20598;-69
2023/04/15 05:33:36;;;;;;;13.32;8.82;;;5.00;2.20;;;;;;7370441;19;20550;-69
2023/04/15 05:36:06;;;;;;;11.52;7.88;;;5.00;1.20;;;;;;7367972;19;20040;-70
2023/04/15 05:38:36;;;;;;;12.00;7.93;;;5.00;1.00;;;;;;7368564;19;20463;-68
2023/04/15 05:41:06;;;;;;;14.05;8.38;;;5.00;1.00;;;;;;7368891;19;20749;-68
2023/04/15 05:43:38;;;;;;;18.60;8.90;;;5.20;1.00;;;;;;7370901;19;20014;-69
2023/04/15 05:46:08;;;;;;;13.75;7.88;;;5.20;1.00;;;;;;7392370;19;20022;-69
2023/04/15 05:48:38;;;;;;;11.50;7.65;;;5.40;1.00;;;;;;7368623;19;20017;-69
2023/04/15 05:51:08;;;;;;;11.27;7.88;;;5.60;1.00;;;;;;7369294;19;20018;-69
2023/04/15 05:53:40;;;;;;;14.05;8.25;;;5.70;1.00;;;;;;7368721;19;20018;-70
2023/04/15 05:56:09;;;;;;;14.80;8.70;;;5.80;1.00;;;;;;7369566;19;20027;-69
2023/04/15 05:58:42;;;;;;;10.68;7.47;;;6.10;1.00;;;;;;7370454;19;20075;-69
2023/04/15 06:01:12;;;;;;;14.50;8.00;;;6.20;1.00;;;;;;7392482;19;20031;-69
2023/04/15 06:03:42;;;;;;;14.15;7.93;;;6.40;1.00;;;;;;7369771;19;20021;-69
2023/04/15 06:06:12;;;;;;;13.25;7.55;;;6.70;1.00;;;;;;7369114;19;20384;-68
2023/04/15 06:08:42;;;;;;;13.38;7.65;;;6.80;1.00;;;;;;7368414;19;20003;-69
2023/04/15 06:11:12;;;;;;;13.23;7.70;;;6.90;1.00;;;;;;7369668;19;20006;-70
2023/04/15 06:13:44;;;;;;;15.02;7.75;;;7.10;1.00;;;;;;7368955;19;20031;-69
2023/04/15 06:16:14;;;;;;;15.65;7.70;;;7.40;1.00;;;;;;7391553;19;20342;-70
2023/04/15 06:18:44;;;;;;;11.60;7.00;;;7.50;1.00;;;;;;7369235;19;20010;-68
2023/04/15 06:21:14;;;;;;;14.30;6.70;;;7.60;1.00;;;;;;7369376;19;20017;-70
2023/04/15 06:23:44;;;;;;;14.73;7.25;;;7.80;1.00;;;;;;7368680;19;20010;-69
2023/04/15 06:26:14;;;;;;;12.90;6.47;;;7.80;1.00;;;;;;7368822;19;20061;-69
2023/04/15 06:28:46;;;;;;;13.68;8.05;;;7.80;1.00;;;;;;7368657;19;20010;-69
2023/04/15 06:31:16;;;;;;;12.15;7.47;;;8.00;1.00;;;;;;7391576;19;20358;-68
2023/04/15 06:33:46;;;;;;;11.60;7.63;;;8.10;1.00;;;;;;7369062;19;20010;-69
2023/04/15 06:36:16;;;;;;;19.77;11.07;;;8.30;1.00;;;;;;7367991;19;20016;-71
2023/04/15 06:38:46;;;;;;;24.33;12.63;;;8.30;1.00;;;;;;7368716;19;20348;-69
2023/04/15 06:41:16;;;;;;;18.80;9.45;;;8.30;1.00;;;;;;7367946;19;20014;-70
2023/04/15 06:43:49;;;;;;;16.58;9.52;;;8.20;1.00;;;;;;7368949;19;20485;-68
2023/04/15 06:46:18;;;;;;;13.60;8.00;;;8.00;1.00;;;;;;7377125;19;20015;-69
2023/04/15 06:48:48;;;;;;;13.98;7.32;;;8.30;1.00;;;;;;7388979;19;20022;-69
2023/04/15 06:51:18;;;;;;;11.00;7.47;;;8.40;1.00;;;;;;7367558;19;20070;-69
2023/04/15 06:53:48;;;;;;;13.05;7.30;;;8.60;1.00;;;;;;7367499;19;20034;-70
2023/04/15 06:56:18;;;;;;;8.30;5.70;;;8.50;1.00;;;;;;7368045;19;20014;-69
2023/04/15 06:58:50;;;;;;;11.50;6.32;;;8.70;1.00;;;;;;7368893;19;20466;-69
2023/04/15 07:01:21;;;;;;;13.40;6.63;;;8.50;1.00;;;;;;7368103;19;20010;-69
2023/04/15 07:03:51;;;;;;;12.60;6.78;;;8.50;1.00;;;;;;7389144;19;20038;-70
2023/04/15 07:06:21;;;;;;;12.05;6.63;;;8.60;1.00;;;;;;7368214;19;20502;-70
2023/04/15 07:08:51;;;;;;;9.63;6.50;;;8.60;1.00;;;;;;7373211;19;20097;-69
2023/04/15 07:11:21;;;;;;;10.60;6.63;;;8.50;1.00;;;;;;7374854;19;20003;-70
2023/04/15 07:13:54;;;;;;;9.05;6.43;;;8.50;1.00;;;;;;7374856;19;20011;-69
2023/04/15 07:16:23;;;;;;;10.20;6.43;;;8.60;1.00;;;;;;7374027;19;20521;-70
2023/04/15 07:18:56;;;;;;;9.77;6.07;;;8.60;1.00;;;;;;7396347;19;20014;-69
2023/04/15 07:21:26;;;;;;;8.13;5.70;;;8.60;1.00;;;;;;7374108;19;20010;-69
2023/04/15 07:23:59;;;;;;;10.35;5.93;;;8.40;1.00;;;;;;7374051;19;20022;-70
2023/04/15 07:26:29;;;;;;;19.00;6.60;;;8.60;1.00;;;;;;7374259;19;20488;-70
2023/04/15 07:29:01;;;;;;;8.15;6.22;;;8.80;1.00;;;;;;7372419;19;20025;-69
2023/04/15 07:31:32;;;;;;;12.35;6.47;;;9.00;1.00;;;;;;7373835;19;20042;-68
2023/04/15 07:34:02;;;;;;;10.63;6.40;;;9.00;1.00;;;;;;7395821;19;20034;-70
2023/04/15 07:36:32;;;;;;;9.88;5.88;;;9.40;1.00;;;;;;7372903;19;20010;-69
2023/04/15 07:39:03;;;;;;;13.23;7.25;;;9.90;1.00;;;;;;7372562;19;20006;-69
2023/04/15 07:41:33;;;;;;;9.90;5.93;;;10.10;1.00;;;;;;7373283;19;20087;-70
2023/04/15 07:44:05;;;;;;;11.70;6.93;;;10.40;1.00;;;;;;7374662;19;20002;-69
2023/04/15 07:46:36;;;;;;;11.38;7.32;;;10.10;1.00;;;;;;7373531;19;20371;-70
2023/04/15 07:49:06;;;;;;;10.73;6.70;;;9.70;1.00;;;;;;7393662;19;20373;-69
2023/04/15 07:51:36;;;;;;;15.88;7.63;;;9.80;1.00;;;;;;7373651;19;20820;-70
2023/04/15 07:54:06;;;;;;;13.10;7.32;;;10.00;1.00;;;;;;7373037;19;20039;-68
2023/04/15 07:56:36;;;;;;;10.60;6.85;;;10.10;1.00;;;;;;7372216;19;20015;-70
2023/04/15 07:59:08;;;;;;;14.50;7.03;;;10.30;1.00;;;;;;7372954;19;20090;-68
2023/04/15 08:01:38;;;;;;;15.00;6.47;;;10.20;1.00;;;;;;7373733;19;20004;-69
2023/04/15 08:04:09;;;;;;;9.35;6.57;;;10.40;1.00;;;;;;7396065;19;20042;-69
2023/04/15 08:06:39;;;;;;;12.15;6.70;;;10.40;1.00;;;;;;7372901;19;20018;-69
2023/04/15 08:09:09;;;;;;;11.75;6.30;;;10.60;1.00;;;;;;7372902;19;20387;-70
2023/04/15 08:11:39;;;;;;;14.10;6.50;;;10.90;1.00;;;;;;7374114;19;20011;-68
2023/04/15 08:14:12;;;;;;;9.73;6.82;;;11.00;1.00;;;;;;7373401;19;20038;-69
2023/04/15 08:16:42;;;;;;;16.08;6.32;;;10.90;1.00;;;;;;7373077;19;20010;-72
2023/04/15 08:19:12;;;;;;;12.55;6.22;;;10.90;1.00;;;;;;7393763;19;20490;-70
2023/04/15 08:21:42;;;;;;;7.78;5.30;;;10.90;1.00;;;;;;7377165;19;20013;-69
2023/04/15 08:24:12;;;;;;;12.32;5.63;;;10.90;1.00;;;;;;7393095;19;20018;-69
2023/04/15 08:26:42;;;;;;;7.10;4.45;;;11.20;1.00;;;;;;7389338;19;20081;-70
2023/04/15 08:29:14;;;;;;;11.32;4.35;;;11.10;1.00;;;;;;7396420;19;20019;-69
2023/04/15 08:31:44;;;;;;;8.13;4.63;;;10.80;1.00;;;;;;7374152;19;20102;-69
2023/04/15 08:34:14;;;;;;;8.20;4.60;;;11.30;1.00;;;;;;7394854;19;20018;-69
2023/04/15 08:36:45;;;;;;;9.32;4.65;;;11.60;1.00;;;;;;7371181;19;20014;-69
2023/04/15 08:39:15;;;;;;;7.43;4.40;;;11.70;1.00;;;;;;7371564;19;20014;-68
2023/04/15 08:41:49;;;;;;;9.48;4.63;;;11.30;1.00;;;;;;7372819;19;20034;-68
2023/04/15 08:44:23;;;;;;;8.63;4.13;;;11.20;1.00;;;;;;7373732;19;20007;-70
2023/04/15 08:46:54;;;;;;;5.72;4.00;;;11.80;1.00;;;;;;7371133;19;20042;-70
2023/04/15 08:49:28;;;;;;;7.57;4.47;;;11.80;1.00;;;;;;7369273;19;20022;-69
2023/04/15 08:52:01;;;;;;;10.30;4.78;;;11.80;1.00;;;;;;7394436;19;20118;-70
2023/04/15 08:54:32;;;;;;;8.00;4.13;;;11.90;1.00;;;;;;7371102;19;20006;-69
2023/04/15 08:57:02;;;;;;;7.47;4.65;;;12.00;1.00;;;;;;7371027;19;20539;-70
2023/04/15 08:59:35;;;;;;;7.28;4.57;;;12.00;1.00;;;;;;7370041;19;20018;-70
2023/04/15 09:02:05;;;;;;;8.15;4.75;;;12.80;1.00;;;;;;7371491;19;20066;-69
2023/04/15 09:04:36;;;;;;;10.02;4.75;;;12.60;1.00;;;;;;7371368;19;20010;-70
2023/04/15 09:07:06;;;;;;;9.02;5.13;;;13.00;1.00;;;;;;7392614;19;20015;-70
2023/04/15 09:09:39;;;;;;;8.27;4.88;;;12.50;1.00;;;;;;7370001;19;20474;-69
2023/04/15 09:12:10;;;;;;;7.43;4.32;;;12.40;1.00;;;;;;7371848;19;20014;-69
2023/04/15 09:14:44;;;;;;;5.22;4.28;;;12.60;1.00;;;;;;7370218;19;20031;-71
2023/04/15 09:17:14;;;;;;;;;;;12.40;1.00;;;;;;7370777;19;20010;-70
2023/04/15 09:19:44;;;;;;;7.03;5.00;;;12.30;1.00;;;;;;7369623;19;19983;-69
2023/04/15 09:22:15;;;;;;;7.03;4.05;;;12.90;1.00;;;;;;7391390;19;20010;-69
2023/04/15 09:24:45;;;;;;;7.88;4.57;;;13.20;1.00;;;;;;7370348;19;20015;-71
2023/04/15 09:27:18;;;;;;;8.20;4.95;;;13.20;1.00;;;;;;7368663;19;20061;-68
2023/04/15 09:29:51;;;;;;;6.20;4.30;;;13.00;1.00;;;;;;7367279;19;20015;-69
2023/04/15 09:32:23;;;;;;;7.68;4.53;;;12.70;1.00;;;;;;7370387;19;20015;-69
2023/04/15 09:34:53;;;;;;;7.05;4.60;;;12.90;1.00;;;;;;7369179;19;20011;-70
2023/04/15 09:37:36;;;;;;;4.80;3.97;;;12.60;1.00;;;;;;7367948;19;20029;-69
2023/04/15 09:40:08;;;;;;;8.80;4.15;;;12.90;1.00;;;;;;7389446;19;20014;-68
2023/04/15 09:42:38;;;;;;;5.80;3.88;;;13.00;1.00;;;;;;7370094;19;20014;-70
2023/04/15 09:45:14;;;;;;;6.97;4.57;;;13.10;1.00;;;;;;7370140;19;20089;-69
2023/04/15 09:47:44;;;;;;;4.80;3.97;;;13.20;1.00;;;;;;7369054;19;20035;-69
2023/04/15 09:50:14;;;;;;;6.03;4.18;;;13.10;1.00;;;;;;7368606;19;20093;-68
2023/04/15 09:52:45;;;;;;;7.05;3.60;;;12.80;1.00;;;;;;7370489;19;20016;-70
2023/04/15 09:55:16;;;;;;;6.78;3.88;;;13.00;1.00;;;;;;7392247;19;20015;-68
2023/04/15 09:57:47;;;;;;;6.20;3.65;;;13.40;1.00;;;;;;7369295;19;20007;-70
2023/04/15 10:00:20;;;;;;;7.18;3.53;;;13.40;1.00;;;;;;7367201;19;20020;-69
2023/04/15 10:02:50;;;;;;;6.88;3.50;;;13.40;1.00;;;;;;7369672;19;20006;-69
2023/04/15 10:05:22;;;;;;;5.45;3.35;;;13.30;1.00;;;;;;7367808;19;20014;-69
2023/04/15 10:07:53;;;;;;;5.57;3.00;;;13.10;1.00;;;;;;7369574;19;20006;-69
2023/04/15 10:10:23;;;;;;;7.95;3.17;;;13.20;1.00;;;;;;7366963;19;20017;-69
2023/04/15 10:12:56;;;;;;;6.88;3.30;;;13.60;1.00;;;;;;7392319;19;20014;-69
2023/04/15 10:15:31;;;;;;;5.55;3.28;;;13.50;1.00;;;;;;7367852;19;20428;-69
2023/04/15 10:18:02;;;;;;;6.07;3.55;;;13.70;1.00;;;;;;7367897;19;20475;-69
2023/04/15 10:20:33;;;;;;;3.80;2.90;;;14.20;1.00;;;;;;7367640;19;20006;-69
2023/04/15 10:23:03;;;;;;;10.00;3.42;;;14.20;1.00;;;;;;7369696;19;20007;-69
2023/04/15 10:25:35;;;;;;;5.13;3.22;;;14.00;1.00;;;;;;7367255;19;20014;-69
2023/04/15 10:28:07;;;;;;;5.95;3.20;;;13.80;1.00;;;;;;7390885;19;20018;-69
2023/04/15 10:30:40;;;;;;;3.92;3.03;;;13.60;1.00;;;;;;7367592;19;20019;-70
2023/04/15 10:33:11;;;;;;;7.03;3.50;;;13.60;1.00;;;;;;7369339;19;20007;-69
2023/04/15 10:35:41;;;;;;;7.32;3.35;;;13.90;1.00;;;;;;7366668;19;20011;-69
2023/04/15 10:38:36;;;;;;;6.35;3.50;;;13.50;1.00;;;;;;7369155;19;20010;-68
2023/04/15 10:41:18;;;;;;;5.60;3.38;;;13.50;1.00;;;;;;7366848;19;20017;-70
2023/04/15 10:43:51;;;;;;;6.40;3.40;;;13.70;1.00;;;;;;7369067;19;20011;-70
2023/04/15 10:46:28;;;;;;;6.45;3.05;;;14.10;1.00;;;;;;7366358;19;20047;-69
2023/04/15 10:48:57;;;;;;;6.97;4.03;;;13.50;1.00;;;;;;7389084;19;20118;-69
2023/04/15 10:51:32;;;;;;;5.10;3.10;;;13.40;1.00;;;;;;7366162;19;20014;-70
2023/04/15 10:54:02;;;;;;;9.95;3.92;;;13.80;1.00;;;;;;7367721;19;20036;-69
2023/04/15 10:56:32;;;;;;;8.32;4.32;;;13.90;1.00;;;;;;7365893;19;20415;-70
2023/04/15 10:59:03;;;;;;;6.00;4.28;;;14.30;1.00;;;;;;7367819;19;20383;-69
2023/04/15 11:01:58;;;;;;;7.07;4.00;;;13.80;1.00;;;;;;7369477;19;20032;-70
2023/04/15 11:04:54;;;;;;;5.72;4.20;;;14.00;1.00;;;;;;7367514;19;20010;-70
2023/04/15 11:07:40;;;;;;;;;;;13.80;1.00;;;;;;7367239;19;20522;-70
2023/04/15 11:10:51;;;;;;;7.65;4.07;;;13.70;1.00;;;;;;7388565;19;19928;-70
2023/04/15 11:13:30;;;;;;;8.00;4.93;;;14.30;1.00;;;;;;7264427;19;2004332;-69
2023/04/15 11:16:02;;;;;;;6.65;4.80;;;13.90;1.00;;;;;;7389782;19;20394;-68
2023/04/15 11:18:36;;;;;;;6.25;4.75;;;13.70;1.00;;;;;;7366895;19;20026;-70
2023/04/15 11:21:08;;;;;;;;;;;13.50;1.00;;;;;;7367312;19;20144;-70
2023/04/15 11:23:42;;;;;;;9.43;4.38;;;13.80;1.00;;;;;;7366661;19;19918;-70
2023/04/15 11:26:13;;;;;;;7.32;4.25;;;13.60;1.00;;;;;;7366430;19;20011;-69
2023/04/15 11:28:45;;;;;;;6.90;4.00;;;13.90;1.00;;;;;;7368053;19;20034;-70
2023/04/15 11:31:16;;;;;;;7.47;4.38;;;14.30;1.00;;;;;;7389118;19;20107;-68
2023/04/15 11:33:57;;;;;;;9.23;3.97;;;14.50;1.00;;;;;;7367640;19;20035;-68
2023/04/15 11:36:28;;;;;;;8.63;3.92;;;14.40;1.00;;;;;;7365441;19;20018;-69
2023/04/15 11:39:00;;;;;;;5.18;3.50;;;14.10;1.00;;;;;;7367525;19;20011;-70
2023/04/15 11:41:30;;;;;;;6.00;3.17;;;14.10;1.00;;;;;;7364416;19;20114;-71
2023/04/15 11:44:00;;;;;;;5.43;2.92;;;14.30;1.00;;;;;;7368080;19;20015;-69
2023/04/15 11:46:32;;;;;;;3.83;2.75;;;13.70;1.00;;;;;;7366399;19;20014;-68
2023/04/15 11:49:04;;;;;;;4.20;2.47;;;13.60;1.00;;;;;;7388315;19;20074;-69
2023/04/15 11:51:35;;;;;;;4.95;2.88;;;13.70;1.00;;;;;;7364313;19;20006;-70
2023/04/15 11:54:05;;;;;;;4.60;2.97;;;13.80;1.00;;;;;;7372766;19;19998;-69
2023/04/15 11:56:35;;;;;;;5.18;2.90;;;13.60;1.00;;;;;;7395733;19;20083;-69
2023/04/15 11:59:05;;;;;;;4.05;3.05;;;13.60;1.00;;;;;;7394101;19;20011;-69
2023/04/15 12:01:38;;;;;;;5.53;3.40;;;13.70;1.00;;;;;;7385125;19;20359;-69
2023/04/15 12:04:17;;;;;;;7.05;3.08;;;13.60;1.00;;;;;;7403196;19;20014;-69
2023/04/15 12:06:51;;;;;;;5.70;3.23;;;13.40;1.00;;;;;;7379062;19;20058;-67
2023/04/15 12:09:22;;;;;;;6.13;3.10;;;13.50;1.00;;;;;;7374147;19;20099;-68
2023/04/15 12:11:53;;;;;;;5.03;2.90;;;13.40;1.00;;;;;;7371170;19;20014;-69
2023/04/15 12:14:27;;;;;;;4.15;2.70;;;12.70;1.00;;;;;;7371829;19;20467;-69
2023/04/15 12:17:00;;;;;;;5.60;3.35;;;12.20;1.00;;;;;;7372158;19;20014;-69
2023/04/15 12:19:38;;;;;;;8.50;4.55;;;10.90;1.00;;;;;;7371553;19;20020;-70
2023/04/15 12:22:10;;;;;;;8.35;5.43;;;10.50;1.00;;;;;;7395098;19;20011;-71
2023/04/15 12:24:42;;;;;;;10.52;4.90;;;9.90;1.00;;;;;;7372101;19;20014;-71
2023/04/15 12:27:14;;;;;;;8.13;5.03;;;9.60;1.00;;;;;;7368550;19;20016;-70
2023/04/15 12:29:44;;;;;;;9.50;4.68;;;9.60;1.00;;;;;;7371345;19;20078;-69
2023/04/15 12:32:15;;;;;;;4.40;2.65;;;9.50;1.00;;;;;;7372468;19;20010;-70
2023/04/15 12:34:55;;;;;;;4.07;2.40;;;9.50;1.00;;;;;;7394167;19;20030;-68
2023/04/15 12:37:25;;;;;;;3.60;2.60;;;9.90;1.00;;;;;;7371500;19;20021;-68
2023/04/15 12:39:55;;;;;;;5.57;2.60;;;10.20;1.00;;;;;;7369089;19;20077;-68
2023/04/15 12:42:25;;;;;;;5.05;2.47;;;10.30;1.00;;;;;;7373529;19;20013;-69
2023/04/15 12:44:55;;;;;;;5.72;2.65;;;10.50;1.00;;;;;;7371931;19;20018;-69
2023/04/15 12:47:25;;;;;;;4.72;2.63;;;10.70;1.00;;;;;;7372929;19;20126;-69
2023/04/15 12:49:58;;;;;;;4.95;3.00;;;10.80;1.00;;;;;;7370382;19;20031;-70
2023/04/15 12:52:27;;;;;;;7.05;3.50;;;10.80;1.00;;;;;;7393638;19;20039;-69
2023/04/15 12:54:59;;;;;;;5.32;2.70;;;11.00;1.00;;;;;;7371475;19;20014;-69
2023/04/15 12:57:29;;;;;;;5.57;3.08;;;11.20;1.00;;;;;;7371898;19;20141;-69
2023/04/15 12:59:58;;;;;;;7.05;3.08;;;11.30;1.00;;;;;;7371494;19;20641;-70
2023/04/15 13:02:28;;;;;;;6.90;3.53;;;11.20;1.00;;;;;;7371600;19;20007;-70
2023/04/15 13:05:01;;;;;;;8.57;3.25;;;11.40;1.00;;;;;;7369438;19;20010;-70
2023/04/15 13:07:31;;;;;;;6.10;3.05;;;11.40;1.00;;;;;;7392263;19;20014;-71
2023/04/15 13:10:01;;;;;;;5.47;2.97;;;11.40;1.00;;;;;;7369953;19;20027;-69
2023/04/15 13:12:35;;;;;;;5.28;2.95;;;11.40;1.00;;;;;;7369928;19;20022;-69
2023/04/15 13:15:05;;;;;;;5.30;1.85;;;11.70;1.00;;;;;;7371007;19;20006;-70
2023/04/15 13:17:35;;;;;;;4.65;2.25;;;11.50;1.00;;;;;;7371937;19;20067;-70